Time;durP1;ratioP1;P1;durP2;ratioP2;P2;SDS_P1;SDS_P2;PMS_P1;PMS_P2;Temp;Humidity;BMP_temperature;BMP_pressure;BME280_temperature;BME280_humidity;BME280_pressure;Samples;Min_cycle;Max_cycle;Signal;HPM_P1;HPM_P2
2022/10/14 00:01:26;;;;;;;;;8.33;8.33;;;;;17.58;100.00;101181.84;5039732;28;45550;-72
2022/10/14 00:03:53;;;;;;;;;11.33;9.00;;;;;17.57;100.00;101180.97;5037583;28;68010;-71
2022/10/14 00:06:21;;;;;;;;;9.00;7.00;;;;;17.57;100.00;101180.09;5025677;28;45349;-72
2022/10/14 00:08:46;;;;;;;;;10.00;8.67;;;;;17.57;100.00;101175.63;5038127;28;45324;-72
2022/10/14 00:11:14;;;;;;;;;9.67;8.00;;;;;17.57;100.00;101170.28;5040850;28;45411;-71
2022/10/14 00:13:40;;;;;;;;;10.00;10.00;;;;;17.56;100.00;101168.53;5042548;28;47090;-72
2022/10/14 00:16:13;;;;;;;;;8.33;7.33;;;;;17.58;100.00;101165.84;5037371;28;65823;-72
2022/10/14 00:18:38;;;;;;;;;8.33;7.00;;;;;17.57;100.00;101169.41;5038664;28;45466;-71
2022/10/14 00:21:03;;;;;;;;;6.00;6.00;;;;;17.56;100.00;101163.19;5037452;28;64055;-72
2022/10/14 00:23:29;;;;;;;;;12.67;9.67;;;;;17.58;100.00;101164.09;5038442;28;46430;-71
2022/10/14 00:25:54;;;;;;;;;8.67;6.00;;;;;17.57;100.00;101154.28;5043485;28;64183;-72
2022/10/14 00:28:19;;;;;;;;;8.00;6.67;;;;;17.58;100.00;101152.47;5039801;28;61169;-72
2022/10/14 00:30:55;;;;;;;;;8.33;8.33;;;;;17.57;100.00;101148.06;5038398;28;45497;-72
2022/10/14 00:33:21;;;;;;;;;10.33;8.00;;;;;17.57;100.00;101148.94;5037851;28;45657;-71
2022/10/14 00:36:01;;;;;;;;;7.33;7.00;;;;;17.57;100.00;101143.59;5038511;28;45497;-72
2022/10/14 00:38:27;;;;;;;;;6.33;5.00;;;;;17.59;100.00;101147.16;5038115;28;45507;-72
2022/10/14 00:40:53;;;;;;;;;7.00;6.00;;;;;17.59;100.00;101136.47;5041514;28;45470;-72
2022/10/14 00:43:19;;;;;;;;;5.00;5.00;;;;;17.59;100.00;101135.59;5037594;28;46647;-72
2022/10/14 00:45:44;;;;;;;;;8.00;6.67;;;;;17.57;100.00;101132.03;5030078;28;45431;-72
2022/10/14 00:48:10;;;;;;;;;5.00;5.00;;;;;17.56;100.00;101125.81;5038338;28;45221;-72
2022/10/14 00:50:37;;;;;;;;;5.33;5.33;;;;;17.55;100.00;101130.28;5037005;28;63968;-71
2022/10/14 00:53:02;;;;;;;;;7.00;5.00;;;;;17.58;100.00;101129.38;5041519;28;45907;-72
2022/10/14 00:55:28;;;;;;;;;4.67;4.67;;;;;17.57;100.00;101122.22;5037526;28;45625;-72
2022/10/14 00:57:54;;;;;;;;;6.00;4.67;;;;;17.57;100.00;101122.22;5037661;28;57128;-72
2022/10/14 01:00:19;;;;;;;;;4.00;4.00;;;;;17.59;100.00;101127.56;5044299;28;45507;-72
2022/10/14 01:02:46;;;;;;;;;8.00;4.67;;;;;17.60;100.00;101124.88;5037333;28;46694;-72
2022/10/14 01:05:14;;;;;;;;;6.33;5.00;;;;;17.59;100.00;101120.44;5037904;28;45455;-71
2022/10/14 01:07:47;;;;;;;;;2.67;2.67;;;;;17.60;100.00;101121.31;5042219;28;45579;-72
2022/10/14 01:10:35;;;;;;;;;5.00;4.00;;;;;17.61;100.00;101120.41;5036936;28;45390;-72
2022/10/14 01:13:07;;;;;;;;;3.67;3.67;;;;;17.59;100.00;101112.44;5037279;28;46750;-72
2022/10/14 01:15:59;;;;;;;;;4.00;4.00;;;;;17.60;100.00;101106.19;5036241;28;45305;-72
2022/10/14 01:18:58;;;;;;;;;3.00;3.00;;;;;17.60;100.00;101102.63;5037730;28;45388;-72
2022/10/14 01:21:35;;;;;;;;;4.00;4.00;;;;;17.60;100.00;101102.63;5019778;28;45446;-72
2022/10/14 01:24:04;;;;;;;;;3.67;3.67;;;;;17.60;100.00;101098.19;5036968;28;45388;-72
2022/10/14 01:27:06;;;;;;;;;4.67;4.67;;;;;17.61;100.00;101093.72;5037423;28;45396;-71
2022/10/14 01:29:56;;;;;;;;;3.00;3.00;;;;;17.61;100.00;101094.59;5037829;28;45346;-71
2022/10/14 01:32:30;;;;;;;;;3.67;3.00;;;;;17.59;100.00;101091.06;5034850;28;45514;-72
2022/10/14 01:35:26;;;;;;;;;3.00;3.00;;;;;17.62;100.00;101099.03;5035956;28;46637;-72
2022/10/14 01:37:57;;;;;;;;;3.00;3.00;;;;;17.62;100.00;101098.16;5037436;28;45398;-72
2022/10/14 01:40:35;;;;;;;;;2.00;2.00;;;;;17.60;100.00;101086.63;5036480;28;45383;-72
2022/10/14 01:43:03;;;;;;;;;2.00;2.00;;;;;17.62;100.00;101085.66;5028046;28;45384;-72
2022/10/14 01:45:31;;;;;;;;;2.00;2.00;;;;;17.61;100.00;101089.25;5034650;28;47273;-71
2022/10/14 01:47:57;;;;;;;;;2.00;2.00;;;;;17.60;100.00;101073.25;5039359;28;45243;-72
2022/10/14 01:50:24;;;;;;;;;2.33;2.33;;;;;17.62;100.00;101083.00;5037436;28;63400;-72
2022/10/14 01:52:54;;;;;;;;;2.00;2.00;;;;;17.62;100.00;101085.66;5041537;28;54205;-72
2022/10/14 01:55:23;;;;;;;;;2.00;2.00;;;;;17.62;100.00;101096.34;5036760;28;46537;-72
2022/10/14 01:57:50;;;;;;;;;2.00;2.00;;;;;17.60;100.00;101087.50;5035737;28;45440;-72
2022/10/14 02:00:15;;;;;;;;;3.00;3.00;;;;;17.63;100.00;101078.53;5048757;28;45335;-72
2022/10/14 02:02:41;;;;;;;;;2.00;2.00;;;;;17.62;100.00;101077.66;5041642;28;51290;-72
2022/10/14 02:05:32;;;;;;;;;3.00;2.00;;;;;17.63;100.00;101078.53;5036933;28;45900;-72
2022/10/14 02:08:10;;;;;;;;;2.00;2.00;;;;;17.60;100.00;101065.25;5031607;28;45350;-71
2022/10/14 02:10:54;;;;;;;;;4.00;2.00;;;;;17.62;100.00;101069.66;5030572;28;45582;-72
2022/10/14 02:13:31;;;;;;;;;3.00;2.00;;;;;17.61;100.00;101073.22;5036568;28;45376;-72
2022/10/14 02:16:09;;;;;;;;;4.00;2.00;;;;;17.61;100.00;101065.22;5033565;28;46854;-72
2022/10/14 02:18:38;;;;;;;;;2.00;2.00;;;;;17.60;100.00;101057.25;5036382;28;45574;-71
2022/10/14 02:21:25;;;;;;;;;3.00;1.67;;;;;17.61;100.00;101062.56;5020277;28;45419;-72
2022/10/14 02:24:06;;;;;;;;;1.67;1.67;;;;;17.59;100.00;101056.38;5036548;28;45364;-71
2022/10/14 02:26:32;;;;;;;;;3.33;2.00;;;;;17.59;100.00;101063.50;5037953;28;46931;-72
2022/10/14 02:28:59;;;;;;;;;1.67;1.67;;;;;17.59;100.00;101067.03;5043429;28;45487;-71
2022/10/14 02:31:27;;;;;;;;;3.00;1.00;;;;;17.57;100.00;101068.84;5051549;28;52539;-72
2022/10/14 02:33:55;;;;;;;;;2.00;2.00;;;;;17.55;100.00;101057.31;5025373;28;57468;-72
2022/10/14 02:36:22;;;;;;;;;4.00;2.67;;;;;17.57;100.00;101055.47;5036143;28;45854;-72
2022/10/14 02:38:48;;;;;;;;;2.00;2.00;;;;;17.57;100.00;101049.25;5035045;28;45558;-72
2022/10/14 02:41:16;;;;;;;;;1.67;1.67;;;;;17.56;100.00;101056.38;5042106;28;52157;-72
2022/10/14 02:43:43;;;;;;;;;1.67;1.67;;;;;17.56;100.00;101056.38;5036617;28;45642;-72
2022/10/14 02:46:09;;;;;;;;;1.67;1.00;;;;;17.54;100.00;101044.88;5036061;28;46258;-72
2022/10/14 02:48:34;;;;;;;;;1.67;1.67;;;;;17.54;100.00;101040.41;5035421;28;65590;-71
2022/10/14 02:50:59;;;;;;;;;2.00;2.00;;;;;17.54;100.00;101052.88;5040356;28;47870;-72
2022/10/14 02:53:25;;;;;;;;;1.00;1.00;;;;;17.51;100.00;101040.44;5036247;28;57750;-72
2022/10/14 02:55:50;;;;;;;;;1.00;1.00;;;;;17.50;100.00;101037.78;5038465;28;47386;-72
2022/10/14 02:58:15;;;;;;;;;2.00;2.00;;;;;17.50;100.00;101044.00;5035488;28;62333;-72
2022/10/14 03:00:41;;;;;;;;;3.33;2.00;;;;;17.49;100.00;101044.94;5042503;28;45688;-72
2022/10/14 03:03:06;;;;;;;;;2.00;2.00;;;;;17.48;100.00;101053.84;5035939;28;50267;-72
2022/10/14 03:05:31;;;;;;;;;3.00;3.00;;;;;17.49;100.00;101050.25;5035019;28;61854;-72
2022/10/14 03:07:57;;;;;;;;;1.33;1.33;;;;;17.48;100.00;101048.50;5039892;28;60904;-72
2022/10/14 03:10:22;;;;;;;;;2.00;2.00;;;;;17.47;100.00;101046.75;5035967;28;45296;-71
2022/10/14 03:12:47;;;;;;;;;2.00;2.00;;;;;17.46;100.00;101042.28;5036214;28;56846;-72
2022/10/14 03:15:13;;;;;;;;;3.00;1.33;;;;;17.47;100.00;101049.41;5040951;28;45854;-72
2022/10/14 03:17:38;;;;;;;;;3.33;2.33;;;;;17.47;100.00;101048.50;5033634;28;64829;-72
2022/10/14 03:20:04;;;;;;;;;3.33;2.67;;;;;17.47;100.00;101048.50;5036321;28;46990;-72
2022/10/14 03:22:30;;;;;;;;;3.67;3.00;;;;;17.46;100.00;101044.06;5035974;28;45756;-71
2022/10/14 03:24:55;;;;;;;;;3.67;2.67;;;;;17.48;100.00;101052.97;5034995;28;64388;-72
2022/10/14 03:27:20;;;;;;;;;1.67;1.67;;;;;17.47;100.00;101045.84;5035577;28;64649;-72
2022/10/14 03:29:46;;;;;;;;;2.00;2.00;;;;;17.48;100.00;101048.50;5044332;28;61395;-72
2022/10/14 03:32:11;;;;;;;;;3.67;3.67;;;;;17.47;100.00;101045.84;5038369;28;45558;-71
2022/10/14 03:34:36;;;;;;;;;3.00;3.00;;;;;17.46;100.00;101042.28;5038901;28;62568;-72
2022/10/14 03:37:02;;;;;;;;;1.33;1.33;;;;;17.45;100.00;101044.97;5037883;28;65048;-72
2022/10/14 03:39:27;;;;;;;;;2.00;2.00;;;;;17.42;100.00;101029.91;5039168;28;45206;-72
2022/10/14 03:41:52;;;;;;;;;2.00;2.00;;;;;17.42;100.00;101026.34;5042865;28;45308;-72
2022/10/14 03:44:18;;;;;;;;;3.00;2.00;;;;;17.41;100.00;101025.44;5039085;28;46461;-71
2022/10/14 03:46:43;;;;;;;;;2.00;2.00;;;;;17.39;100.00;101019.25;5036979;28;64690;-72
2022/10/14 03:49:08;;;;;;;;;2.33;1.00;;;;;17.40;100.00;101018.34;5038376;28;62437;-72
2022/10/14 03:51:34;;;;;;;;;1.33;1.33;;;;;17.39;100.00;101029.06;5038141;28;55365;-71
2022/10/14 03:53:59;;;;;;;;;1.00;1.00;;;;;17.35;100.00;101024.66;5038901;28;45498;-71
2022/10/14 03:56:25;;;;;;;;;1.00;1.00;;;;;17.35;100.00;101032.66;5038725;28;45960;-72
2022/10/14 03:58:50;;;;;;;;;2.67;2.00;;;;;17.34;100.00;101031.78;5039315;28;45547;-71
2022/10/14 04:01:15;;;;;;;;;2.00;2.00;;;;;17.35;100.00;101036.22;5038861;28;54920;-72
2022/10/14 04:03:41;;;;;;;;;4.33;2.00;;;;;17.34;100.00;101030.91;5037511;28;67090;-72
2022/10/14 04:06:07;;;;;;;;;1.00;1.00;;;;;17.34;100.00;101033.56;5038858;28;45178;-72
2022/10/14 04:08:32;;;;;;;;;1.00;1.00;;;;;17.29;100.00;101038.97;5042825;28;57300;-72
2022/10/14 04:10:57;;;;;;;;;2.00;2.00;;;;;17.29;100.00;101033.63;5038003;28;50525;-72
2022/10/14 04:13:23;;;;;;;;;3.67;2.00;;;;;17.29;100.00;101034.50;5040783;28;46756;-71
2022/10/14 04:15:48;;;;;;;;;1.00;1.00;;;;;17.28;100.00;101031.88;5038315;28;45305;-72
2022/10/14 04:18:14;;;;;;;;;1.33;1.33;;;;;17.27;100.00;101032.78;5038292;28;50488;-72
2022/10/14 04:20:40;;;;;;;;;1.00;1.00;;;;;17.28;100.00;101023.88;5038044;28;59895;-72
2022/10/14 04:23:06;;;;;;;;;2.67;1.33;;;;;17.31;100.00;101030.94;5037906;28;46790;-71
2022/10/14 04:25:32;;;;;;;;;2.00;0.00;;;;;17.31;100.00;101031.84;5038656;28;45275;-72
2022/10/14 04:27:58;;;;;;;;;1.00;1.00;;;;;17.31;100.00;101023.84;5039807;28;45304;-72
2022/10/14 04:30:23;;;;;;;;;1.67;1.00;;;;;17.32;100.00;101014.03;5038644;28;45316;-72
2022/10/14 04:32:48;;;;;;;;;1.00;1.00;;;;;17.35;100.00;101021.97;5045286;28;68795;-72
2022/10/14 04:35:14;;;;;;;;;3.00;2.00;;;;;17.32;100.00;101022.06;5042723;28;61153;-71
2022/10/14 04:37:39;;;;;;;;;3.00;2.00;;;;;17.33;100.00;101027.34;5037726;28;59094;-71
2022/10/14 04:40:05;;;;;;;;;1.67;1.67;;;;;17.35;100.00;101028.22;5038354;28;45527;-72
2022/10/14 04:42:30;;;;;;;;;3.67;2.00;;;;;17.35;100.00;101027.31;5036915;28;47548;-71
2022/10/14 04:44:55;;;;;;;;;1.00;1.00;;;;;17.33;100.00;101024.69;5039709;28;45464;-71
2022/10/14 04:47:21;;;;;;;;;1.00;1.00;;;;;17.34;100.00;101031.78;5037075;28;54850;-72
2022/10/14 04:49:46;;;;;;;;;1.67;1.67;;;;;17.32;100.00;101020.25;5038207;28;45431;-72
2022/10/14 04:52:11;;;;;;;;;1.00;1.00;;;;;17.34;100.00;101017.56;5037097;28;66961;-72
2022/10/14 04:54:37;;;;;;;;;3.00;2.00;;;;;17.31;100.00;101005.16;5037222;28;63435;-72
2022/10/14 04:57:02;;;;;;;;;1.00;1.00;;;;;17.32;100.00;101019.38;5037582;28;55676;-72
2022/10/14 04:59:27;;;;;;;;;2.00;2.00;;;;;17.32;100.00;101016.72;5042791;28;45218;-71
2022/10/14 05:01:53;;;;;;;;;4.00;2.33;;;;;17.33;100.00;101023.81;5046776;28;47366;-71
2022/10/14 05:04:18;;;;;;;;;3.00;2.00;;;;;17.31;100.00;101014.91;5038478;28;66442;-72
2022/10/14 05:06:44;;;;;;;;;1.67;1.33;;;;;17.34;100.00;101017.56;5037980;28;45302;-72
2022/10/14 05:09:09;;;;;;;;;3.00;3.00;;;;;17.35;100.00;101008.63;5037827;28;45435;-72
2022/10/14 05:11:35;;;;;;;;;3.00;1.00;;;;;17.33;100.00;101005.13;5037121;28;46797;-71
2022/10/14 05:14:00;;;;;;;;;2.00;2.00;;;;;17.32;100.00;101009.59;5042138;28;45468;-71
2022/10/14 05:16:26;;;;;;;;;3.33;2.67;;;;;17.29;100.00;100997.16;5037181;28;45523;-72
2022/10/14 05:18:51;;;;;;;;;1.00;1.00;;;;;17.30;100.00;101000.69;5045234;28;45290;-71
2022/10/14 05:21:17;;;;;;;;;1.67;1.00;;;;;17.29;100.00;101005.16;5040681;28;47283;-71
2022/10/14 05:23:42;;;;;;;;;2.00;2.00;;;;;17.27;100.00;101000.75;5038830;28;45258;-71
2022/10/14 05:26:09;;;;;;;;;2.00;2.00;;;;;17.28;100.00;100999.84;5036974;28;57531;-70
2022/10/14 05:28:36;;;;;;;;;3.00;2.00;;;;;17.26;100.00;100994.53;5045518;28;45255;-72
2022/10/14 05:31:02;;;;;;;;;2.00;2.00;;;;;17.27;100.00;100996.28;5037117;28;46177;-71
2022/10/14 05:33:28;;;;;;;;;3.00;2.00;;;;;17.26;100.00;100989.19;5037353;28;45396;-71
2022/10/14 05:35:53;;;;;;;;;2.33;2.33;;;;;17.26;100.00;100994.53;5037468;28;45256;-70
2022/10/14 05:38:18;;;;;;;;;3.00;2.00;;;;;17.25;100.00;100986.53;5036595;28;61892;-72
2022/10/14 05:40:53;;;;;;;;;2.00;2.00;;;;;17.21;100.00;100990.16;5029773;28;66930;-71
2022/10/14 05:43:18;;;;;;;;;2.00;2.00;;;;;17.21;100.00;100993.72;5039549;28;45590;-71
2022/10/14 05:45:43;;;;;;;;;1.33;1.33;;;;;17.18;100.00;100991.06;5041862;28;46927;-71
2022/10/14 05:48:09;;;;;;;;;3.00;2.00;;;;;17.18;100.00;100983.06;5047789;28;62426;-71
2022/10/14 05:50:34;;;;;;;;;3.00;3.00;;;;;17.19;100.00;100991.97;5031499;28;66433;-71
2022/10/14 05:53:00;;;;;;;;;1.67;1.67;;;;;17.19;100.00;100989.28;5035545;28;47105;-71
2022/10/14 05:55:25;;;;;;;;;4.00;3.00;;;;;17.17;100.00;100988.44;5035365;28;45499;-71
2022/10/14 05:57:54;;;;;;;;;3.00;3.00;;;;;17.18;100.00;100987.53;5032748;28;51963;-71
2022/10/14 06:00:20;;;;;;;;;2.67;2.67;;;;;17.18;100.00;100990.19;5046333;28;46936;-70
2022/10/14 06:02:45;;;;;;;;;4.00;2.67;;;;;17.17;100.00;100991.09;5040377;28;64455;-70
2022/10/14 06:05:10;;;;;;;;;6.00;3.00;;;;;17.16;100.00;100992.91;5036508;28;45189;-70
2022/10/14 06:07:36;;;;;;;;;2.67;2.67;;;;;17.17;100.00;100992.00;5035887;28;59733;-71
2022/10/14 06:10:01;;;;;;;;;4.33;3.67;;;;;17.20;100.00;100994.59;5035824;28;45738;-71
2022/10/14 06:12:27;;;;;;;;;4.00;4.00;;;;;17.20;100.00;100997.25;5104430;22;45552;-71
2022/10/14 06:14:53;;;;;;;;;4.00;4.00;;;;;17.21;100.00;100990.16;5054106;28;45389;-71
2022/10/14 06:17:18;;;;;;;;;4.00;4.00;;;;;17.21;100.00;100995.50;5055038;28;58692;-71
2022/10/14 06:19:43;;;;;;;;;3.00;3.00;;;;;17.21;100.00;100995.50;5055736;28;46804;-71
2022/10/14 06:22:09;;;;;;;;;4.00;2.00;;;;;17.22;100.00;100999.94;5055933;28;58542;-71
2022/10/14 06:24:34;;;;;;;;;3.00;3.00;;;;;17.22;100.00;101006.16;5037235;28;56054;-71
2022/10/14 06:26:59;;;;;;;;;3.00;3.00;;;;;17.21;100.00;101006.19;5054702;28;45500;-71
2022/10/14 06:29:30;;;;;;;;;3.00;3.00;;;;;17.23;100.00;101007.91;5053174;28;46502;-70
2022/10/14 06:31:55;;;;;;;;;5.33;5.00;;;;;17.24;100.00;101008.78;5055671;28;45379;-69
2022/10/14 06:34:22;;;;;;;;;4.67;4.00;;;;;17.25;100.00;101003.41;5053873;28;45738;-70
2022/10/14 06:36:48;;;;;;;;;5.00;3.67;;;;;17.26;100.00;100997.22;5048380;28;45557;-70
2022/10/14 06:39:13;;;;;;;;;4.00;4.00;;;;;17.29;100.00;100998.94;5050364;28;45709;-68
2022/10/14 06:41:39;;;;;;;;;6.33;4.00;;;;;17.30;100.00;101003.38;5050656;28;45738;-70
2022/10/14 06:44:04;;;;;;;;;6.00;5.00;;;;;17.29;100.00;100999.81;5048221;28;62503;-72
2022/10/14 06:46:29;;;;;;;;;5.00;3.67;;;;;17.35;100.00;100998.84;5048021;28;45556;-69
2022/10/14 06:48:55;;;;;;;;;6.67;5.00;;;;;17.37;100.00;101001.50;5045471;28;66291;-72
2022/10/14 06:51:20;;;;;;;;;4.00;4.00;;;;;17.40;100.00;101012.13;5044110;28;45450;-71
2022/10/14 06:53:45;;;;;;;;;5.00;4.00;;;;;17.41;100.00;101005.88;5053388;28;45473;-71
2022/10/14 06:56:11;;;;;;;;;3.33;3.33;;;;;17.42;100.00;101005.00;5051594;28;61764;-71
2022/10/14 06:58:37;;;;;;;;;4.33;4.33;;;;;17.44;100.00;101016.53;5046608;28;46265;-69
2022/10/14 07:01:06;;;;;;;;;7.00;5.00;;;;;17.43;100.00;101004.97;5047100;28;67612;-71
2022/10/14 07:03:35;;;;;;;;;5.33;4.00;;;;;17.45;100.00;101018.28;5023899;28;45504;-72
2022/10/14 07:06:05;;;;;;;;;1.00;1.00;;;;;17.42;100.00;101013.88;5044767;28;45639;-71
2022/10/14 07:08:31;;;;;;;;;5.33;5.00;;;;;17.45;100.00;101021.84;5049551;28;46969;-71
2022/10/14 07:10:56;;;;;;;;;7.00;5.00;;;;;17.43;100.00;101026.31;5032644;28;59222;-69
2022/10/14 07:13:21;;;;;;;;;3.67;3.33;;;;;17.45;100.00;101021.84;5043578;28;45297;-71
2022/10/14 07:15:48;;;;;;;;;7.67;4.33;;;;;17.47;100.00;101021.81;5050629;28;57278;-69
2022/10/14 07:18:14;;;;;;;;;2.00;2.00;;;;;17.47;100.00;101024.47;5047267;28;46585;-69
2022/10/14 07:20:39;;;;;;;;;5.00;3.00;;;;;17.48;100.00;101028.94;5045952;28;45525;-71
2022/10/14 07:23:04;;;;;;;;;1.00;1.00;;;;;17.46;100.00;101022.72;5050771;28;56132;-72
2022/10/14 07:25:31;;;;;;;;;6.33;5.00;;;;;17.48;100.00;101040.50;5050112;28;45605;-72
2022/10/14 07:27:57;;;;;;;;;2.00;2.00;;;;;17.47;100.00;101037.81;5049394;28;47432;-69
2022/10/14 07:30:22;;;;;;;;;2.00;2.00;;;;;17.46;100.00;101041.41;5046482;28;46530;-72
2022/10/14 07:32:47;;;;;;;;;2.00;1.00;;;;;17.46;100.00;101036.94;5044559;28;56354;-72
2022/10/14 07:35:13;;;;;;;;;3.00;1.67;;;;;17.48;100.00;101039.63;5047614;28;59996;-72
2022/10/14 07:37:38;;;;;;;;;3.67;1.67;;;;;17.51;100.00;101043.09;5048704;28;46575;-71
2022/10/14 07:40:04;;;;;;;;;1.67;1.67;;;;;17.54;100.00;101044.88;5041581;28;45423;-71
2022/10/14 07:42:29;;;;;;;;;3.00;2.00;;;;;17.59;100.00;101051.03;5045160;28;45578;-70
2022/10/14 07:44:56;;;;;;;;;1.00;1.00;;;;;17.61;100.00;101043.84;5051100;28;54155;-71
2022/10/14 07:47:21;;;;;;;;;4.00;2.00;;;;;17.63;100.00;101057.19;5049677;28;46369;-70
2022/10/14 07:49:47;;;;;;;;;2.00;1.67;;;;;17.61;100.00;101048.31;5034312;28;51000;-72
2022/10/14 07:52:14;;;;;;;;;1.00;1.00;;;;;17.61;100.00;101057.22;5048944;28;45458;-71
2022/10/14 07:54:40;;;;;;;;;0.67;0.67;;;;;17.59;100.00;101061.69;5048870;28;45659;-71
2022/10/14 07:57:05;;;;;;;;;1.00;1.00;;;;;17.58;100.00;101065.28;5051898;28;53552;-71
2022/10/14 07:59:30;;;;;;;;;1.00;1.00;;;;;17.57;100.00;101065.28;5051437;28;60523;-71
2022/10/14 08:01:56;;;;;;;;;3.00;1.00;;;;;17.57;100.00;101065.28;5050159;28;61977;-71
2022/10/14 08:04:22;;;;;;;;;0.00;0.00;;;;;17.54;100.00;101077.78;5032268;28;45348;-71
2022/10/14 08:06:48;;;;;;;;;4.00;1.33;;;;;17.54;100.00;101077.78;5026106;28;46717;-71
2022/10/14 08:09:14;;;;;;;;;2.00;2.00;;;;;17.54;100.00;101082.25;5045408;28;45483;-70
2022/10/14 08:11:40;;;;;;;;;1.00;1.00;;;;;17.55;100.00;101086.66;5047278;28;45374;-70
2022/10/14 08:14:06;;;;;;;;;2.00;2.00;;;;;17.54;100.00;101084.91;5031058;28;45486;-71
2022/10/14 08:16:33;;;;;;;;;1.33;1.33;;;;;17.54;100.00;101091.13;5050393;28;62246;-71
2022/10/14 08:19:02;;;;;;;;;3.00;1.00;;;;;17.50;100.00;101078.72;5057515;28;45520;-70
2022/10/14 08:21:27;;;;;;;;;1.00;1.00;;;;;17.48;100.00;101080.53;5034173;28;45417;-71
2022/10/14 08:23:53;;;;;;;;;1.00;1.00;;;;;17.48;100.00;101079.66;5045009;28;45510;-71
2022/10/14 08:26:35;;;;;;;;;1.00;1.00;;;;;17.49;100.00;101081.41;5042547;28;46052;-70
2022/10/14 08:29:06;;;;;;;;;2.67;2.67;;;;;17.50;100.00;101089.41;5056138;28;45498;-70
2022/10/14 08:31:32;;;;;;;;;2.00;2.00;;;;;17.52;100.00;101086.69;5053447;28;45534;-71
2022/10/14 08:33:58;;;;;;;;;2.00;2.00;;;;;17.49;100.00;101082.31;5027047;28;45625;-71
2022/10/14 08:36:24;;;;;;;;;6.33;4.00;;;;;17.52;100.00;101089.38;5048550;28;47353;-72
2022/10/14 08:38:51;;;;;;;;;2.00;2.00;;;;;17.52;100.00;101086.69;5022840;28;45825;-70
2022/10/14 08:41:31;;;;;;;;;5.00;1.33;;;;;17.57;100.00;101090.19;5047783;28;45206;-71
2022/10/14 08:44:15;;;;;;;;;2.67;2.00;;;;;17.59;100.00;101088.41;5049265;28;45453;-73
2022/10/14 08:47:05;;;;;;;;;3.00;1.00;;;;;17.61;100.00;101075.03;5049078;28;47500;-72
2022/10/14 08:49:58;;;;;;;;;2.33;2.33;;;;;17.61;100.00;101089.25;5051970;28;46404;-72
2022/10/14 08:53:05;;;;;;;;;3.00;2.00;;;;;17.61;100.00;101083.03;5050660;28;45388;-72
2022/10/14 08:55:41;;;;;;;;;5.33;3.00;;;;;17.60;100.00;101081.28;4972733;28;45531;-72
2022/10/14 08:58:15;;;;;;;;;2.00;2.00;;;;;17.62;100.00;101082.13;5047676;28;47098;-72
2022/10/14 09:00:42;;;;;;;;;3.67;2.00;;;;;17.63;100.00;101074.13;5045240;28;45471;-72
2022/10/14 09:03:15;;;;;;;;;1.67;1.67;;;;;17.71;100.00;101079.34;5028584;28;47043;-72
2022/10/14 09:05:40;;;;;;;;;3.00;2.00;;;;;17.73;100.00;101081.09;5050693;28;45471;-72
2022/10/14 09:08:12;;;;;;;;;2.00;2.00;;;;;17.80;100.00;101084.59;5045597;28;64536;-72
2022/10/14 09:10:40;;;;;;;;;2.00;1.33;;;;;17.84;100.00;101083.59;5057864;28;45324;-72
2022/10/14 09:13:26;;;;;;;;;1.33;1.33;;;;;17.87;100.00;101072.00;5039009;28;46047;-72
2022/10/14 09:16:03;;;;;;;;;2.00;2.00;;;;;17.90;100.00;101063.97;5036666;28;45559;-72
2022/10/14 09:18:36;;;;;;;;;1.67;1.67;;;;;17.89;100.00;101063.06;5054945;28;47731;-72
2022/10/14 09:21:13;;;;;;;;;3.00;2.00;;;;;17.94;100.00;101066.53;5052635;28;45557;-72
2022/10/14 09:23:39;;;;;;;;;3.00;1.00;;;;;17.96;100.00;101058.53;5037995;28;45474;-72
2022/10/14 09:26:09;;;;;;;;;1.00;1.00;;;;;17.94;100.00;101047.84;5056287;28;62651;-73
2022/10/14 09:28:37;;;;;;;;;3.00;2.00;;;;;17.94;100.00;101060.31;5056153;28;45645;-72
2022/10/14 09:31:04;;;;;;;;;1.00;1.00;;;;;17.94;100.00;101052.28;5045465;28;45654;-72
2022/10/14 09:33:29;;;;;;;;;1.67;1.67;;;;;17.97;100.00;101053.13;5038195;28;45502;-72
2022/10/14 09:35:56;;;;;;;;;2.00;1.00;;;;;17.96;100.00;101054.06;5039437;28;45539;-72
2022/10/14 09:38:22;;;;;;;;;1.00;1.00;;;;;17.96;100.00;101053.19;5057371;28;45694;-71
2022/10/14 09:40:51;;;;;;;;;1.00;1.00;;;;;17.92;100.00;101044.31;5051796;28;45622;-72
2022/10/14 09:43:19;;;;;;;;;1.00;1.00;;;;;17.91;100.00;101061.25;5033131;28;45452;-72
2022/10/14 09:46:01;;;;;;;;;2.67;1.00;;;;;17.95;100.00;101046.03;5055920;28;45497;-71
2022/10/14 09:48:45;;;;;;;;;3.00;1.33;;;;;17.99;100.00;101050.44;5045395;28;46284;-72
2022/10/14 09:51:24;;;;;;;;;2.00;2.00;;;;;18.00;100.00;101041.50;5050565;28;47168;-72
2022/10/14 09:53:52;;;;;;;;;2.67;2.67;;;;;18.03;100.00;101047.69;5037025;28;45384;-72
2022/10/14 09:56:41;;;;;;;;;1.00;1.00;;;;;18.11;100.00;101055.59;5034974;28;45679;-72
2022/10/14 09:59:20;;;;;;;;;2.00;2.00;;;;;18.15;100.00;101048.41;5033833;28;46417;-72
2022/10/14 10:01:54;;;;;;;;;3.33;2.00;;;;;18.19;100.00;101061.69;5059229;28;45351;-72
2022/10/14 10:04:37;;;;;;;;;2.00;2.00;;;;;18.20;100.00;101051.88;5055052;28;45578;-72
2022/10/14 10:07:06;;;;;;;;;2.00;2.00;;;;;18.23;100.00;101052.72;5054739;28;45526;-73
2022/10/14 10:09:33;;;;;;;;;2.67;2.00;;;;;18.27;100.00;101045.53;5054826;28;47262;-71
2022/10/14 10:11:58;;;;;;;;;1.00;1.00;;;;;18.32;100.00;101054.31;5056177;28;45875;-72
2022/10/14 10:14:31;;;;;;;;;3.00;1.33;;;;;18.36;100.00;101052.50;5052010;28;45513;-72
2022/10/14 10:17:06;;;;;;;;;3.00;3.00;;;;;18.38;100.00;101051.56;5052578;28;45541;-71
2022/10/14 10:19:38;;;;;;;;;2.00;2.00;;;;;18.41;100.00;101051.50;5054634;28;46632;-72
2022/10/14 10:22:37;;;;;;;;;3.67;3.67;;;;;18.47;100.00;101040.69;5056331;28;45380;-71
2022/10/14 10:25:03;;;;;;;;;2.00;2.00;;;;;18.54;100.00;101047.72;5011797;28;45495;-72
2022/10/14 10:27:35;;;;;;;;;3.00;3.00;;;;;18.58;100.00;101035.16;5055937;28;45556;-71
2022/10/14 10:30:47;;;;;;;;;4.00;2.00;;;;;18.68;100.00;101035.91;5052707;28;46862;-71
2022/10/14 10:33:34;;;;;;;;;2.00;2.00;;;;;18.78;100.00;101034.81;5046794;28;45481;-72
2022/10/14 10:36:02;;;;;;;;;1.00;1.00;;;;;18.87;100.00;101031.97;5053711;28;45395;-71
2022/10/14 10:38:34;;;;;;;;;2.33;1.33;;;;;18.96;100.00;101025.53;5055984;28;45411;-71
2022/10/14 10:41:29;;;;;;;;;2.00;2.00;;;;;19.04;100.00;101016.44;5035253;28;47237;-71
2022/10/14 10:43:56;;;;;;;;;2.00;2.00;;;;;19.11;100.00;101020.72;5027884;28;45561;-71
2022/10/14 10:46:43;;;;;;;;;2.33;2.33;;;;;19.15;100.00;101005.50;5055480;28;45375;-71
2022/10/14 10:49:39;;;;;;;;;4.00;2.67;;;;;19.22;100.00;101006.22;5019553;28;45639;-72
2022/10/14 10:52:07;;;;;;;;;2.00;2.00;;;;;19.27;100.00;100998.97;5055793;28;46746;-72
2022/10/14 10:54:59;;;;;;;;;1.00;1.00;;;;;19.33;100.00;101002.44;5041140;28;45415;-73
2022/10/14 10:57:33;;;;;;;;;5.00;1.00;;;;;19.40;100.00;100994.25;5054874;28;45438;-70
2022/10/14 11:00:03;;;;;;;;;0.33;0.33;;;;;19.43;100.00;100984.34;5049076;28;45539;-70
2022/10/14 11:03:20;;;;;;;;;0.33;0.33;;;;;19.48;100.00;100992.25;5042715;28;46728;-70
2022/10/14 11:12:01;;;;;;;;;1.00;1.00;;;;;19.49;100.00;100988.66;4980100;28;45666;-69
2022/10/14 11:12:02;;;;;;;;;0.00;0.00;;;;;19.30;100.00;100985.53;5050078;28;45952;-70
2022/10/14 11:14:30;;;;;;;;;1.33;0.00;;;;;19.24;100.00;100986.56;5038283;28;45724;-70
2022/10/14 11:17:22;;;;;;;;;0.67;0.00;;;;;19.21;100.00;100983.06;5055370;28;45536;-70
2022/10/14 11:20:04;;;;;;;;;0.00;0.00;;;;;19.20;100.00;100970.59;5046098;28;45692;-70
2022/10/14 11:22:49;;;;;;;;;1.00;0.00;;;;;19.17;100.00;100967.97;5054687;28;46367;-70
2022/10/14 11:25:43;;;;;;;;;0.00;0.00;;;;;19.17;100.00;100955.47;5037074;28;46828;-69
2022/10/14 11:28:27;;;;;;;;;0.00;0.00;;;;;19.20;100.00;100957.22;5035191;28;45375;-71
2022/10/14 11:30:57;;;;;;;;;0.00;0.00;;;;;19.17;100.00;100960.81;5035027;28;45416;-70
2022/10/14 11:33:28;;;;;;;;;0.00;0.00;;;;;19.15;100.00;100951.97;5055441;28;45537;-68